Terminal Aerodrome Forecast
Issued by NWS Wakefield, VA

Home | Current Version | Previous Version | Text Only | Print | Product List | Glossary On
Versions: 1 2 3 4 5 6 7 8 9 10 11 12 13 14 15 16 17 18 19 20 21 22 23 24 25 26 27 28 29 30 31 32 33
000
FTUS41 KAKQ 010522
TAFSBY
TAF
KSBY 010522Z 0106/0206 06009KT 2SM BR VCSH OVC003
      TEMPO 0106/0110 3SM SHRA BR OVC002
     FM011100 09004KT 2SM BR OVC002
     FM011300 15006KT 5SM BR OVC010
     FM011600 16009KT P6SM SCT020 BKN040
     FM012300 15005KT P6SM BKN100=

USA.gov is the U.S. government's official web portal to all federal, state and local government web resources and services.